createdAt,value
2023-04-27T00:01:11.777Z,94285.80
2023-04-27T00:03:38.093Z,94287.80
2023-04-27T00:06:04.468Z,94289.20
2023-04-27T00:08:31.407Z,94290.20
2023-04-27T00:10:57.621Z,94287.20
2023-04-27T00:13:23.906Z,94288.40
2023-04-27T00:15:50.127Z,94294.20
2023-04-27T00:18:16.577Z,94293.40
2023-04-27T00:20:43.026Z,94291.00
2023-04-27T00:23:09.166Z,94293.20
2023-04-27T00:25:35.372Z,94293.80
2023-04-27T00:28:01.488Z,94299.20
2023-04-27T00:30:27.703Z,94296.60
2023-04-27T00:32:53.930Z,94299.60
2023-04-27T00:35:20.097Z,94298.00
2023-04-27T00:37:46.599Z,94295.40
2023-04-27T00:40:12.716Z,94291.20
2023-04-27T00:42:38.917Z,94292.20
2023-04-27T00:45:05.540Z,94294.40
2023-04-27T00:47:31.712Z,94294.20
2023-04-27T00:49:58.127Z,94296.20
2023-04-27T00:52:24.205Z,94293.60
2023-04-27T00:54:50.268Z,94297.00
2023-04-27T00:57:16.437Z,94296.00
2023-04-27T00:59:42.509Z,94299.80
2023-04-27T01:02:08.930Z,94296.00
2023-04-27T01:04:36.257Z,94298.60
2023-04-27T01:07:02.388Z,94302.00
2023-04-27T01:09:28.458Z,94301.40
2023-04-27T01:11:55.398Z,94300.80
2023-04-27T01:14:21.804Z,94299.80
2023-04-27T01:16:47.991Z,94295.40
2023-04-27T01:19:14.489Z,94298.40
2023-04-27T01:21:40.846Z,94298.00
2023-04-27T01:24:07.048Z,94299.60
2023-04-27T01:26:33.285Z,94307.40
2023-04-27T01:28:59.411Z,94309.40
2023-04-27T01:31:25.620Z,94308.60
2023-04-27T01:33:51.855Z,94311.60
2023-04-27T01:36:17.962Z,94311.00
2023-04-27T01:38:44.092Z,94311.60
2023-04-27T01:41:10.240Z,94310.00
2023-04-27T01:43:36.486Z,94311.00
2023-04-27T01:46:02.653Z,94317.20
2023-04-27T01:48:28.859Z,94322.20
2023-04-27T01:50:54.964Z,94320.40
2023-04-27T01:53:21.245Z,94320.20
2023-04-27T01:55:47.542Z,94321.40
2023-04-27T01:58:13.635Z,94323.60
2023-04-27T02:00:39.898Z,94318.20
2023-04-27T02:03:06.247Z,94323.80
2023-04-27T02:05:32.576Z,94320.80
2023-04-27T02:07:58.901Z,94324.80
2023-04-27T02:10:25.138Z,94328.60
2023-04-27T02:12:52.194Z,94327.40
2023-04-27T02:15:18.260Z,94330.80
2023-04-27T02:17:44.883Z,94330.20
2023-04-27T02:20:11.803Z,94327.00
2023-04-27T02:22:38.040Z,94327.40
2023-04-27T02:25:04.768Z,94326.80
2023-04-27T02:27:30.969Z,94325.60
2023-04-27T02:29:57.572Z,94324.80
2023-04-27T02:32:24.252Z,94329.40
2023-04-27T02:34:50.888Z,94328.00
2023-04-27T02:37:17.057Z,94328.00
2023-04-27T02:39:43.265Z,94331.40
2023-04-27T02:42:09.465Z,94333.40
2023-04-27T02:44:35.720Z,94336.80
2023-04-27T02:47:01.902Z,94330.00
2023-04-27T02:49:28.044Z,94333.40
2023-04-27T02:51:54.156Z,94326.20
2023-04-27T02:54:20.342Z,94328.20
2023-04-27T02:56:46.437Z,94328.80
2023-04-27T02:59:12.670Z,94328.40
2023-04-27T03:01:39.100Z,94329.80
2023-04-27T03:04:05.618Z,94329.00
2023-04-27T03:06:31.889Z,94329.80
2023-04-27T03:08:58.514Z,94327.00
2023-04-27T03:11:24.665Z,94331.60
2023-04-27T03:13:50.760Z,94333.40
2023-04-27T03:16:16.917Z,94334.40
2023-04-27T03:18:43.124Z,94334.20
2023-04-27T03:21:09.216Z,94333.80
2023-04-27T03:23:35.622Z,94335.60
2023-04-27T03:26:01.947Z,94334.40
2023-04-27T03:28:28.305Z,94331.40
2023-04-27T03:30:54.732Z,94337.20
2023-04-27T03:33:21.655Z,94339.40
2023-04-27T03:35:47.763Z,94336.80
2023-04-27T03:38:13.871Z,94339.40
2023-04-27T03:40:40.137Z,94338.20
2023-04-27T03:43:06.227Z,94342.40
2023-04-27T03:45:32.344Z,94340.00
2023-04-27T03:47:58.616Z,94341.40
2023-04-27T03:50:24.736Z,94349.40
2023-04-27T03:52:50.876Z,94346.40
2023-04-27T03:55:17.079Z,94347.00
2023-04-27T03:57:43.172Z,94349.80
2023-04-27T04:00:12.456Z,94350.00
2023-04-27T04:02:38.833Z,94348.40
2023-04-27T04:05:05.167Z,94353.40
2023-04-27T04:07:31.399Z,94360.60
2023-04-27T04:09:57.497Z,94361.60
2023-04-27T04:12:23.617Z,94362.20
2023-04-27T04:14:50.768Z,94365.20
2023-04-27T04:17:16.932Z,94370.60
2023-04-27T04:19:43.105Z,94373.20
2023-04-27T04:22:09.272Z,94372.20
2023-04-27T04:24:35.502Z,94373.40
2023-04-27T04:27:02.193Z,94375.00
2023-04-27T04:29:28.519Z,94378.60
2023-04-27T04:31:54.600Z,94380.60
2023-04-27T04:34:21.040Z,94380.80
2023-04-27T04:36:47.246Z,94383.60
2023-04-27T04:39:14.212Z,94382.40
2023-04-27T04:41:40.445Z,94390.80
2023-04-27T04:44:06.588Z,94388.20
2023-04-27T04:46:32.759Z,94391.20
2023-04-27T04:48:58.855Z,94391.40
2023-04-27T04:51:24.994Z,94393.60
2023-04-27T04:53:51.094Z,94388.80
2023-04-27T04:56:17.226Z,94394.80
2023-04-27T04:58:43.342Z,94398.60
2023-04-27T05:01:09.526Z,94398.80
2023-04-27T05:03:35.783Z,94397.60
2023-04-27T05:06:02.096Z,94396.20
2023-04-27T05:08:28.273Z,94394.40
2023-04-27T05:10:54.352Z,94394.80
2023-04-27T05:13:20.596Z,94394.40
2023-04-27T05:15:46.757Z,94394.40
2023-04-27T05:18:13.056Z,94391.20
2023-04-27T05:20:39.205Z,94394.00
2023-04-27T05:23:05.311Z,94393.00
2023-04-27T05:25:31.427Z,94390.40
2023-04-27T05:27:57.518Z,94394.20
2023-04-27T05:30:23.747Z,94393.60
2023-04-27T05:32:49.977Z,94394.00
2023-04-27T05:35:16.165Z,94399.40
2023-04-27T05:37:42.279Z,94399.60
2023-04-27T05:40:11.795Z,94402.20
2023-04-27T05:42:37.960Z,94405.60
2023-04-27T05:45:04.126Z,94409.20
2023-04-27T05:47:30.296Z,94406.80
2023-04-27T05:49:56.423Z,94406.80
2023-04-27T05:52:28.780Z,94411.00
2023-04-27T05:54:55.074Z,94411.40
2023-04-27T05:57:21.299Z,94408.00
2023-04-27T05:59:47.385Z,94411.20
2023-04-27T06:02:13.586Z,94411.60
2023-04-27T06:04:39.918Z,94418.00
2023-04-27T06:07:06.504Z,94422.20
2023-04-27T06:09:32.620Z,94414.40
2023-04-27T06:11:58.953Z,94415.00
2023-04-27T06:14:25.104Z,94419.40
2023-04-27T06:16:51.298Z,94416.20
2023-04-27T06:19:17.517Z,94419.80
2023-04-27T06:21:43.661Z,94420.60
2023-04-27T06:24:09.858Z,94414.80
2023-04-27T06:26:36.101Z,94413.60
2023-04-27T06:29:07.169Z,94410.20
2023-04-27T06:31:33.664Z,94410.40
2023-04-27T06:33:59.796Z,94411.20
2023-04-27T06:36:28.723Z,94418.20
2023-04-27T06:38:55.784Z,94411.60
2023-04-27T06:41:21.914Z,94414.60
2023-04-27T06:43:48.071Z,94416.80
2023-04-27T06:46:14.540Z,94415.60
2023-04-27T06:48:40.744Z,94412.40
2023-04-27T06:51:06.823Z,94409.20
2023-04-27T06:53:32.932Z,94410.20
2023-04-27T06:55:59.131Z,94406.40
2023-04-27T06:58:26.350Z,94411.00
2023-04-27T07:00:52.563Z,94410.60
2023-04-27T07:03:18.765Z,94414.40
2023-04-27T07:05:45.036Z,94415.60
2023-04-27T07:08:11.132Z,94414.00
2023-04-27T07:10:37.273Z,94419.40
2023-04-27T07:13:03.372Z,94421.40
2023-04-27T07:15:29.544Z,94419.80
2023-04-27T07:17:55.741Z,94421.00
2023-04-27T07:20:21.821Z,94429.20
2023-04-27T07:22:47.981Z,94428.40
2023-04-27T07:25:14.107Z,94427.60
2023-04-27T07:27:40.881Z,94429.60
2023-04-27T07:30:08.883Z,94425.60
2023-04-27T07:32:35.370Z,94429.60
2023-04-27T07:35:02.241Z,94437.20
2023-04-27T07:37:28.921Z,94435.00
2023-04-27T07:39:55.103Z,94436.00
2023-04-27T07:42:24.393Z,94435.80
2023-04-27T07:44:51.421Z,94438.60
2023-04-27T07:47:18.286Z,94441.40
2023-04-27T07:49:45.617Z,94439.20
2023-04-27T07:52:11.750Z,94448.20
2023-04-27T07:54:37.882Z,94444.40
2023-04-27T07:57:03.939Z,94444.80
2023-04-27T07:59:30.151Z,94444.60
2023-04-27T08:02:07.126Z,94451.00
2023-04-27T08:04:37.653Z,94451.20
2023-04-27T08:07:04.443Z,94455.20
2023-04-27T08:09:31.192Z,94453.60
2023-04-27T08:11:57.527Z,94457.60
2023-04-27T08:14:23.919Z,94463.20
2023-04-27T08:16:51.361Z,94470.40
2023-04-27T08:19:17.865Z,94468.20
2023-04-27T08:21:44.031Z,94472.40
2023-04-27T08:24:10.302Z,94474.20
2023-04-27T08:26:36.420Z,94476.20
2023-04-27T08:29:11.733Z,94483.20
2023-04-27T08:31:46.736Z,94480.00
2023-04-27T08:34:12.837Z,94479.00
2023-04-27T08:36:38.964Z,94479.00
2023-04-27T08:39:06.957Z,94479.60
2023-04-27T08:41:33.096Z,94478.80
2023-04-27T08:43:59.652Z,94480.80
2023-04-27T08:46:29.917Z,94478.80
2023-04-27T08:48:56.360Z,94479.00
2023-04-27T08:51:23.658Z,94475.40
2023-04-27T08:53:49.940Z,94476.20
2023-04-27T08:56:16.037Z,94477.40
2023-04-27T08:58:42.446Z,94477.00
2023-04-27T09:01:10.541Z,94476.00
2023-04-27T09:03:36.872Z,94474.60
2023-04-27T09:06:05.702Z,94476.00
2023-04-27T09:08:32.408Z,94469.40
2023-04-27T09:10:58.552Z,94470.60
2023-04-27T09:13:25.279Z,94460.00
2023-04-27T09:15:51.724Z,94459.40
2023-04-27T09:18:17.888Z,94456.40
2023-04-27T09:20:44.066Z,94457.60
2023-04-27T09:23:10.215Z,94460.00
2023-04-27T09:25:36.315Z,94454.80
2023-04-27T09:28:02.480Z,94454.00
2023-04-27T09:30:28.571Z,94452.60
2023-04-27T09:32:55.499Z,94451.60
2023-04-27T09:35:21.744Z,94456.20
2023-04-27T09:37:47.928Z,94452.80
2023-04-27T09:40:14.106Z,94456.00
2023-04-27T09:42:40.281Z,94454.60
2023-04-27T09:45:06.451Z,94453.20
2023-04-27T09:47:32.550Z,94454.40
2023-04-27T09:49:59.012Z,94457.80
2023-04-27T09:52:25.652Z,94454.20
2023-04-27T09:54:51.811Z,94457.00
2023-04-27T09:57:18.053Z,94453.40
2023-04-27T09:59:44.620Z,94454.80
2023-04-27T10:02:23.536Z,94454.40
2023-04-27T10:04:50.973Z,94453.00
2023-04-27T10:07:17.199Z,94452.20
2023-04-27T10:09:46.598Z,94452.40
2023-04-27T10:12:12.894Z,94449.40
2023-04-27T10:14:39.147Z,94451.20
2023-04-27T10:17:05.585Z,94444.80
2023-04-27T10:19:31.909Z,94443.40
2023-04-27T10:21:59.952Z,94443.60
2023-04-27T10:24:26.356Z,94439.40
2023-04-27T10:26:56.689Z,94438.60
2023-04-27T10:29:22.796Z,94432.60
2023-04-27T10:31:49.289Z,94429.40
2023-04-27T10:34:15.447Z,94427.40
2023-04-27T10:36:41.720Z,94425.60
2023-04-27T10:39:08.458Z,94428.60
2023-04-27T10:41:35.672Z,94429.40
2023-04-27T10:44:02.748Z,94426.60
2023-04-27T10:46:28.855Z,94423.80
2023-04-27T10:48:55.205Z,94423.80
2023-04-27T10:51:21.592Z,94423.80
2023-04-27T10:53:47.726Z,94432.20
2023-04-27T10:56:13.904Z,94433.20
2023-04-27T10:58:48.766Z,94432.60
2023-04-27T11:01:15.924Z,94433.80
2023-04-27T11:03:46.124Z,94438.00
2023-04-27T11:06:12.339Z,94438.20
2023-04-27T11:08:38.419Z,94441.00
2023-04-27T11:11:05.459Z,94441.40
2023-04-27T11:13:32.861Z,94442.20
2023-04-27T11:15:59.249Z,94440.00
2023-04-27T11:18:25.568Z,94447.00
2023-04-27T11:20:51.736Z,94451.20
2023-04-27T11:23:19.074Z,94447.40
2023-04-27T11:25:45.768Z,94452.40
2023-04-27T11:28:11.830Z,94451.40
2023-04-27T11:30:38.008Z,94448.00
2023-04-27T11:33:04.242Z,94448.00
2023-04-27T11:35:30.384Z,94451.40
2023-04-27T11:37:57.539Z,94444.40
2023-04-27T11:40:24.607Z,94443.40
2023-04-27T11:42:50.806Z,94442.60
2023-04-27T11:45:16.949Z,94438.40
2023-04-27T11:47:43.582Z,94441.00
2023-04-27T11:50:09.857Z,94438.80
2023-04-27T11:52:35.953Z,94440.00
2023-04-27T11:55:03.396Z,94442.00
2023-04-27T11:57:29.526Z,94444.40
2023-04-27T11:59:56.160Z,94442.20
2023-04-27T12:02:22.503Z,94437.00
2023-04-27T12:04:50.198Z,94434.40
2023-04-27T12:07:16.397Z,94440.20
2023-04-27T12:09:42.903Z,94444.60
2023-04-27T12:12:09.082Z,94443.00
2023-04-27T12:14:35.300Z,94444.80
2023-04-27T12:17:01.527Z,94445.00
2023-04-27T12:19:27.736Z,94440.20
2023-04-27T12:21:53.788Z,94442.00
2023-04-27T12:24:20.057Z,94444.80
2023-04-27T12:26:46.209Z,94443.40
2023-04-27T12:29:12.519Z,94441.80
2023-04-27T12:31:38.874Z,94440.80
2023-04-27T12:34:05.274Z,94437.40
2023-04-27T12:36:32.366Z,94438.40
2023-04-27T12:38:58.763Z,94433.80
2023-04-27T12:41:25.055Z,94435.60
2023-04-27T12:43:51.351Z,94441.00
2023-04-27T12:46:17.933Z,94439.00
2023-04-27T12:48:44.081Z,94441.60
2023-04-27T12:51:10.350Z,94441.20
2023-04-27T12:53:36.976Z,94445.80
2023-04-27T12:56:03.910Z,94445.40
2023-04-27T12:58:30.470Z,94442.20
2023-04-27T13:00:57.281Z,94445.00
2023-04-27T13:03:23.491Z,94444.60
2023-04-27T13:05:49.849Z,94441.20
2023-04-27T13:08:16.443Z,94437.60
2023-04-27T13:10:42.604Z,94437.60
2023-04-27T13:13:08.966Z,94438.00
2023-04-27T13:15:36.495Z,94436.60
2023-04-27T13:18:05.584Z,94435.40
2023-04-27T13:20:31.964Z,94437.40
2023-04-27T13:22:58.162Z,94439.00
2023-04-27T13:25:24.447Z,94440.20
2023-04-27T13:27:51.127Z,94435.00
2023-04-27T13:30:17.299Z,94437.20
2023-04-27T13:32:43.419Z,94429.60
2023-04-27T13:35:10.239Z,94436.20
2023-04-27T13:37:36.436Z,94431.00
2023-04-27T13:40:04.547Z,94433.60
2023-04-27T13:42:30.688Z,94430.80
2023-04-27T13:44:56.857Z,94435.80
2023-04-27T13:47:23.040Z,94433.20
2023-04-27T13:49:49.255Z,94439.80
2023-04-27T13:52:15.487Z,94439.80
2023-04-27T13:54:41.586Z,94440.40
2023-04-27T13:57:07.818Z,94442.80
2023-04-27T13:59:33.911Z,94438.40
2023-04-27T14:02:00.107Z,94440.40
2023-04-27T14:04:26.322Z,94441.00
2023-04-27T14:06:52.597Z,94449.80
2023-04-27T14:09:18.723Z,94444.40
2023-04-27T14:11:55.515Z,94448.40
2023-04-27T14:14:23.433Z,94449.20
2023-04-27T14:16:52.909Z,94448.20
2023-04-27T14:19:19.859Z,94446.60
2023-04-27T14:21:46.572Z,94446.20
2023-04-27T14:24:12.753Z,94452.80
2023-04-27T14:26:43.134Z,94455.80
2023-04-27T14:29:09.242Z,94454.60
2023-04-27T14:31:35.453Z,94460.00
2023-04-27T14:34:01.656Z,94461.20
2023-04-27T14:36:28.288Z,94455.60
2023-04-27T14:38:54.759Z,94462.00
2023-04-27T14:41:21.005Z,94464.00
2023-04-27T14:43:48.139Z,94462.00
2023-04-27T14:46:20.895Z,94464.80
2023-04-27T14:48:47.560Z,94462.80
2023-04-27T14:51:13.692Z,94466.60
2023-04-27T14:53:39.906Z,94470.20
2023-04-27T14:56:06.005Z,94476.40
2023-04-27T14:58:32.093Z,94477.60
2023-04-27T15:00:58.496Z,94480.80
2023-04-27T15:03:25.205Z,94484.60
2023-04-27T15:05:51.604Z,94479.20
2023-04-27T15:08:17.736Z,94485.40
2023-04-27T15:10:43.795Z,94485.60
2023-04-27T15:13:10.048Z,94485.00
2023-04-27T15:15:36.478Z,94484.00
2023-04-27T15:18:02.950Z,94488.80
2023-04-27T15:20:29.189Z,94492.80
2023-04-27T15:22:55.306Z,94492.20
2023-04-27T15:25:21.438Z,94491.80
2023-04-27T15:27:48.843Z,94494.80
2023-04-27T15:30:15.662Z,94494.00
2023-04-27T15:32:41.756Z,94497.40
2023-04-27T15:35:08.240Z,94494.60
2023-04-27T15:37:34.377Z,94497.80
2023-04-27T15:40:00.510Z,94498.40
2023-04-27T15:42:26.784Z,94494.00
2023-04-27T15:44:53.260Z,94495.60
2023-04-27T15:47:19.313Z,94497.60
2023-04-27T15:49:56.331Z,94500.40
2023-04-27T15:52:23.943Z,94509.40
2023-04-27T15:54:50.704Z,94507.40
2023-04-27T15:57:17.641Z,94509.60
2023-04-27T15:59:44.038Z,94505.60
2023-04-27T16:02:10.338Z,94511.00
2023-04-27T16:04:36.476Z,94507.00
2023-04-27T16:07:02.654Z,94505.40
2023-04-27T16:09:30.503Z,94505.60
2023-04-27T16:11:56.761Z,94507.00
2023-04-27T16:14:22.936Z,94509.40
2023-04-27T16:16:50.626Z,94510.00
2023-04-27T16:19:18.443Z,94509.60
2023-04-27T16:21:46.846Z,94513.40
2023-04-27T16:24:12.987Z,94516.80
2023-04-27T16:26:39.059Z,94522.60
2023-04-27T16:29:05.378Z,94515.40
2023-04-27T16:31:31.540Z,94522.40
2023-04-27T16:33:57.588Z,94521.60
2023-04-27T16:36:23.915Z,94527.60
2023-04-27T16:38:50.649Z,94523.80
2023-04-27T16:41:16.734Z,94523.60
2023-04-27T16:43:42.883Z,94525.60
2023-04-27T16:46:09.004Z,94525.80
2023-04-27T16:48:35.284Z,94526.60
2023-04-27T16:51:01.416Z,94531.40
2023-04-27T16:53:27.512Z,94531.20
2023-04-27T16:55:53.800Z,94528.00
2023-04-27T16:58:19.921Z,94528.60
2023-04-27T17:00:46.005Z,94528.80
2023-04-27T17:03:12.305Z,94538.40
2023-04-27T17:05:38.730Z,94544.20
2023-04-27T17:08:05.734Z,94542.20
2023-04-27T17:10:31.912Z,94541.80
2023-04-27T17:12:58.220Z,94545.80
2023-04-27T17:15:25.317Z,94546.80
2023-04-27T17:17:51.766Z,94551.00
2023-04-27T17:20:18.381Z,94553.00
2023-04-27T17:22:45.581Z,94552.80
2023-04-27T17:25:11.975Z,94552.60
2023-04-27T17:27:38.259Z,94551.40
2023-04-27T17:30:04.446Z,94551.00
2023-04-27T17:32:30.698Z,94553.20
2023-04-27T17:34:56.912Z,94554.20
2023-04-27T17:37:23.004Z,94552.60
2023-04-27T17:39:53.715Z,94551.00
2023-04-27T17:42:19.866Z,94551.60
2023-04-27T17:44:46.008Z,94558.20
2023-04-27T17:47:12.144Z,94559.00
2023-04-27T17:49:38.329Z,94557.40
2023-04-27T17:52:04.401Z,94559.00
2023-04-27T17:54:30.594Z,94563.60
2023-04-27T17:56:56.719Z,94569.80
2023-04-27T17:59:24.005Z,94571.40
2023-04-27T18:01:50.121Z,94574.60
2023-04-27T18:04:16.469Z,94573.00
2023-04-27T18:06:42.696Z,94572.20
2023-04-27T18:09:09.517Z,94568.60
2023-04-27T18:11:35.903Z,94573.40
2023-04-27T18:14:03.016Z,94578.20
2023-04-27T18:16:29.327Z,94581.60
2023-04-27T18:18:55.800Z,94585.00
2023-04-27T18:21:21.927Z,94588.40
2023-04-27T18:23:48.078Z,94586.80
2023-04-27T18:26:14.261Z,94589.20
2023-04-27T18:28:41.087Z,94595.60
2023-04-27T18:31:07.260Z,94597.40
2023-04-27T18:33:33.453Z,94596.60
2023-04-27T18:35:59.987Z,94600.00
2023-04-27T18:38:26.297Z,94603.80
2023-04-27T18:40:52.461Z,94608.60
2023-04-27T18:43:18.509Z,94608.40
2023-04-27T18:45:44.665Z,94610.40
2023-04-27T18:48:10.858Z,94610.20
2023-04-27T18:50:36.984Z,94614.20
2023-04-27T18:53:03.249Z,94614.40
2023-04-27T18:55:29.379Z,94616.00
2023-04-27T18:57:55.537Z,94617.00
2023-04-27T19:00:21.634Z,94618.40
2023-04-27T19:02:47.991Z,94617.40
2023-04-27T19:05:15.364Z,94618.60
2023-04-27T19:07:41.792Z,94624.00
2023-04-27T19:10:08.199Z,94628.80
2023-04-27T19:12:34.394Z,94631.60
2023-04-27T19:15:00.678Z,94625.80
2023-04-27T19:17:27.211Z,94623.40
2023-04-27T19:19:53.822Z,94622.60
2023-04-27T19:22:19.995Z,94618.00
2023-04-27T19:24:46.221Z,94620.00
2023-04-27T19:27:12.421Z,94621.60
2023-04-27T19:29:38.503Z,94626.00
2023-04-27T19:32:04.671Z,94622.40
2023-04-27T19:34:30.897Z,94623.80
2023-04-27T19:36:57.263Z,94619.60
2023-04-27T19:39:23.426Z,94614.20
2023-04-27T19:41:49.591Z,94608.00
2023-04-27T19:44:15.792Z,94606.20
2023-04-27T19:46:42.180Z,94610.80
2023-04-27T19:49:08.627Z,94612.00
2023-04-27T19:51:34.818Z,94616.80
2023-04-27T19:54:00.982Z,94611.80
2023-04-27T19:56:27.114Z,94613.20
2023-04-27T19:58:53.218Z,94615.40
2023-04-27T20:01:21.245Z,94620.40
2023-04-27T20:03:47.481Z,94620.00
2023-04-27T20:06:14.058Z,94619.20
2023-04-27T20:08:40.274Z,94620.80
2023-04-27T20:11:06.364Z,94620.00
2023-04-27T20:13:32.522Z,94613.00
2023-04-27T20:15:58.735Z,94624.20
2023-04-27T20:18:25.054Z,94627.80
2023-04-27T20:20:51.348Z,94629.40
2023-04-27T20:23:17.454Z,94631.80
2023-04-27T20:25:43.560Z,94630.20
2023-04-27T20:28:09.784Z,94632.60
2023-04-27T20:30:35.929Z,94633.00
2023-04-27T20:33:03.203Z,94637.00
2023-04-27T20:35:29.392Z,94638.00
2023-04-27T20:37:57.262Z,94638.40
2023-04-27T20:40:26.249Z,94639.00
2023-04-27T20:42:52.494Z,94640.00
2023-04-27T20:45:18.870Z,94649.40
2023-04-27T20:47:44.971Z,94651.00
2023-04-27T20:50:11.326Z,94656.40
2023-04-27T20:52:37.418Z,94661.00
2023-04-27T20:55:03.488Z,94658.60
2023-04-27T20:57:29.577Z,94655.60
2023-04-27T20:59:55.765Z,94655.60
2023-04-27T21:02:21.885Z,94655.00
2023-04-27T21:04:48.170Z,94652.00
2023-04-27T21:07:14.334Z,94646.40
2023-04-27T21:09:40.966Z,94652.40
2023-04-27T21:12:07.957Z,94657.80
2023-04-27T21:14:34.283Z,94653.80
2023-04-27T21:17:00.601Z,94654.40
2023-04-27T21:19:26.838Z,94654.80
2023-04-27T21:21:53.127Z,94657.60
2023-04-27T21:24:19.554Z,94661.00
2023-04-27T21:26:45.974Z,94657.60
2023-04-27T21:29:12.233Z,94652.40
2023-04-27T21:31:38.398Z,94654.20
2023-04-27T21:34:04.663Z,94653.60
2023-04-27T21:36:32.456Z,94653.40
2023-04-27T21:38:58.552Z,94657.40
2023-04-27T21:41:25.271Z,94655.20
2023-04-27T21:43:51.701Z,94650.80
2023-04-27T21:46:17.949Z,94653.80
2023-04-27T21:48:44.613Z,94654.00
2023-04-27T21:51:11.036Z,94657.40
2023-04-27T21:53:37.154Z,94659.00
2023-04-27T21:56:03.517Z,94659.80
2023-04-27T21:58:32.342Z,94655.80
2023-04-27T22:00:58.538Z,94656.20
2023-04-27T22:03:25.321Z,94660.20
2023-04-27T22:05:51.984Z,94665.40
2023-04-27T22:08:18.077Z,94672.00
2023-04-27T22:10:44.267Z,94674.00
2023-04-27T22:13:19.337Z,94669.80
2023-04-27T22:15:48.919Z,94674.20
2023-04-27T22:18:15.159Z,94674.20
2023-04-27T22:20:41.740Z,94676.60
2023-04-27T22:23:08.686Z,94674.20
2023-04-27T22:25:34.817Z,94682.20
2023-04-27T22:28:01.050Z,94688.40
2023-04-27T22:30:27.227Z,94682.00
2023-04-27T22:32:53.388Z,94679.40
2023-04-27T22:35:26.477Z,94678.20
2023-04-27T22:37:53.551Z,94679.20
2023-04-27T22:40:19.781Z,94683.60
2023-04-27T22:42:46.074Z,94688.80
2023-04-27T22:45:12.562Z,94693.80
2023-04-27T22:47:40.573Z,94698.60
2023-04-27T22:50:07.089Z,94700.40
2023-04-27T22:52:33.535Z,94700.60
2023-04-27T22:55:01.066Z,94692.00
2023-04-27T22:57:27.343Z,94692.80
2023-04-27T22:59:53.525Z,94692.60
2023-04-27T23:02:19.683Z,94691.40
2023-04-27T23:04:45.921Z,94691.60
2023-04-27T23:07:12.097Z,94686.40
2023-04-27T23:09:38.184Z,94685.00
2023-04-27T23:12:07.031Z,94690.00
2023-04-27T23:14:33.137Z,94690.80
2023-04-27T23:17:01.220Z,94687.60
2023-04-27T23:19:28.952Z,94685.20
2023-04-27T23:21:55.305Z,94679.20
2023-04-27T23:24:21.539Z,94684.60
2023-04-27T23:26:47.640Z,94678.80
2023-04-27T23:29:13.730Z,94679.40
2023-04-27T23:31:40.568Z,94683.60
2023-04-27T23:34:06.761Z,94679.20
2023-04-27T23:36:32.877Z,94681.60
2023-04-27T23:38:59.114Z,94681.00
2023-04-27T23:41:25.221Z,94677.80
2023-04-27T23:43:51.496Z,94677.20
2023-04-27T23:46:17.682Z,94678.20
2023-04-27T23:48:43.894Z,94679.00
2023-04-27T23:51:10.279Z,94679.80
2023-04-27T23:53:36.434Z,94675.40
2023-04-27T23:56:02.515Z,94677.00
2023-04-27T23:58:29.043Z,94673.00
